Elbe, Washington
Current Conditions -  °F | °C
As of 12:18 PM on Saturday 25 Oct 2014 (Local Time) from KGRF Reporting Station
Drizzle Drizzle  
Wind Chill: 13°   Ceiling: Unl
Heat Index: 13°   Visibility: 6mi
Dew Point: 12°   Wind: 5mph
Humidity: 94%   Direction: 10°N
Pressure: 29.37"   Gusts: NA
Location:  46.76°N, 122.2°W
Report Text: KGRF 251918Z AUTO 01004KT 6SM DZ BR CLR 13/12 A2937 RMK AO2
Loading
Personal Weather Stations






























Interactive Weather Map
Tropical Storm Tracking
New forecast layout! Learn more

10-Day Weather Forecast

Advertisements
Track Severe Weather on mobile